sensor_id;sensor_type;location;lat;lon;timestamp;P1;durP1;ratioP1;P2;durP2;ratioP2
9898;SDS011;4988;49.238;6.698;2023-04-03T00:01:17;8.90;;;4.90;;
9898;SDS011;4988;49.238;6.698;2023-04-03T00:03:43;8.60;;;4.67;;
9898;SDS011;4988;49.238;6.698;2023-04-03T00:06:09;7.13;;;4.80;;
9898;SDS011;4988;49.238;6.698;2023-04-03T00:08:36;8.57;;;5.07;;
9898;SDS011;4988;49.238;6.698;2023-04-03T00:11:02;8.60;;;5.10;;
9898;SDS011;4988;49.238;6.698;2023-04-03T00:13:28;8.23;;;4.37;;
9898;SDS011;4988;49.238;6.698;2023-04-03T00:15:54;6.10;;;4.67;;
9898;SDS011;4988;49.238;6.698;2023-04-03T00:18:20;5.90;;;4.50;;
9898;SDS011;4988;49.238;6.698;2023-04-03T00:20:45;6.37;;;4.63;;
9898;SDS011;4988;49.238;6.698;2023-04-03T00:23:11;6.63;;;4.43;;
9898;SDS011;4988;49.238;6.698;2023-04-03T00:25:36;5.97;;;4.20;;
9898;SDS011;4988;49.238;6.698;2023-04-03T00:28:02;5.20;;;4.10;;
9898;SDS011;4988;49.238;6.698;2023-04-03T00:30:28;7.03;;;4.23;;
9898;SDS011;4988;49.238;6.698;2023-04-03T00:32:54;5.83;;;4.50;;
9898;SDS011;4988;49.238;6.698;2023-04-03T00:35:20;6.50;;;4.67;;
9898;SDS011;4988;49.238;6.698;2023-04-03T00:37:46;6.03;;;4.20;;
9898;SDS011;4988;49.238;6.698;2023-04-03T00:40:12;7.47;;;4.30;;
9898;SDS011;4988;49.238;6.698;2023-04-03T00:42:39;5.57;;;4.00;;
9898;SDS011;4988;49.238;6.698;2023-04-03T00:47:50;6.73;;;4.50;;
9898;SDS011;4988;49.238;6.698;2023-04-03T00:50:16;6.03;;;4.10;;
9898;SDS011;4988;49.238;6.698;2023-04-03T00:52:42;5.27;;;4.33;;
9898;SDS011;4988;49.238;6.698;2023-04-03T00:55:11;6.20;;;4.10;;
9898;SDS011;4988;49.238;6.698;2023-04-03T00:57:37;5.30;;;4.13;;
9898;SDS011;4988;49.238;6.698;2023-04-03T01:00:07;6.70;;;4.30;;
9898;SDS011;4988;49.238;6.698;2023-04-03T01:02:35;4.87;;;3.90;;
9898;SDS011;4988;49.238;6.698;2023-04-03T01:05:01;6.40;;;4.20;;
9898;SDS011;4988;49.238;6.698;2023-04-03T01:07:29;5.80;;;3.80;;
9898;SDS011;4988;49.238;6.698;2023-04-03T01:10:03;4.77;;;3.77;;
9898;SDS011;4988;49.238;6.698;2023-04-03T01:12:32;5.70;;;4.13;;
9898;SDS011;4988;49.238;6.698;2023-04-03T01:15:08;6.60;;;4.20;;
9898;SDS011;4988;49.238;6.698;2023-04-03T01:17:39;5.90;;;4.80;;
9898;SDS011;4988;49.238;6.698;2023-04-03T01:25:35;6.97;;;4.63;;
9898;SDS011;4988;49.238;6.698;2023-04-03T01:28:03;6.53;;;4.30;;
9898;SDS011;4988;49.238;6.698;2023-04-03T01:30:32;6.73;;;4.57;;
9898;SDS011;4988;49.238;6.698;2023-04-03T01:32:59;5.77;;;4.10;;
9898;SDS011;4988;49.238;6.698;2023-04-03T01:35:24;6.07;;;4.83;;
9898;SDS011;4988;49.238;6.698;2023-04-03T01:37:50;6.90;;;4.87;;
9898;SDS011;4988;49.238;6.698;2023-04-03T01:40:15;5.83;;;4.53;;
9898;SDS011;4988;49.238;6.698;2023-04-03T01:42:41;5.60;;;4.30;;
9898;SDS011;4988;49.238;6.698;2023-04-03T01:45:06;6.27;;;5.10;;
9898;SDS011;4988;49.238;6.698;2023-04-03T01:47:32;6.13;;;4.70;;
9898;SDS011;4988;49.238;6.698;2023-04-03T01:49:57;8.03;;;4.67;;
9898;SDS011;4988;49.238;6.698;2023-04-03T01:52:23;5.90;;;4.30;;
9898;SDS011;4988;49.238;6.698;2023-04-03T01:54:48;5.83;;;4.80;;
9898;SDS011;4988;49.238;6.698;2023-04-03T01:57:13;7.23;;;4.80;;
9898;SDS011;4988;49.238;6.698;2023-04-03T01:59:40;5.43;;;4.50;;
9898;SDS011;4988;49.238;6.698;2023-04-03T02:02:05;6.53;;;5.00;;
9898;SDS011;4988;49.238;6.698;2023-04-03T02:04:31;6.97;;;4.80;;
9898;SDS011;4988;49.238;6.698;2023-04-03T02:06:56;5.10;;;4.33;;
9898;SDS011;4988;49.238;6.698;2023-04-03T02:09:21;7.37;;;4.63;;
9898;SDS011;4988;49.238;6.698;2023-04-03T02:11:46;5.40;;;4.70;;
9898;SDS011;4988;49.238;6.698;2023-04-03T02:14:12;9.80;;;4.90;;
9898;SDS011;4988;49.238;6.698;2023-04-03T02:16:37;6.27;;;5.00;;
9898;SDS011;4988;49.238;6.698;2023-04-03T02:19:03;7.30;;;5.10;;
9898;SDS011;4988;49.238;6.698;2023-04-03T02:21:28;5.07;;;4.47;;
9898;SDS011;4988;49.238;6.698;2023-04-03T02:23:53;5.37;;;4.63;;
9898;SDS011;4988;49.238;6.698;2023-04-03T02:26:19;6.93;;;4.83;;
9898;SDS011;4988;49.238;6.698;2023-04-03T02:28:44;5.93;;;4.77;;
9898;SDS011;4988;49.238;6.698;2023-04-03T02:31:10;6.27;;;4.67;;
9898;SDS011;4988;49.238;6.698;2023-04-03T02:33:36;6.63;;;5.10;;
9898;SDS011;4988;49.238;6.698;2023-04-03T02:36:03;7.07;;;5.13;;
9898;SDS011;4988;49.238;6.698;2023-04-03T02:38:29;7.20;;;5.20;;
9898;SDS011;4988;49.238;6.698;2023-04-03T02:41:05;9.03;;;4.57;;
9898;SDS011;4988;49.238;6.698;2023-04-03T02:43:32;8.37;;;4.80;;
9898;SDS011;4988;49.238;6.698;2023-04-03T02:45:58;8.17;;;4.80;;
9898;SDS011;4988;49.238;6.698;2023-04-03T02:48:23;6.70;;;4.83;;
9898;SDS011;4988;49.238;6.698;2023-04-03T02:50:49;7.23;;;4.97;;
9898;SDS011;4988;49.238;6.698;2023-04-03T02:53:15;5.57;;;4.67;;
9898;SDS011;4988;49.238;6.698;2023-04-03T02:55:40;6.43;;;4.70;;
9898;SDS011;4988;49.238;6.698;2023-04-03T02:58:06;7.27;;;4.83;;
9898;SDS011;4988;49.238;6.698;2023-04-03T03:00:32;6.40;;;4.50;;
9898;SDS011;4988;49.238;6.698;2023-04-03T03:02:57;5.93;;;4.70;;
9898;SDS011;4988;49.238;6.698;2023-04-03T03:05:23;7.90;;;4.97;;
9898;SDS011;4988;49.238;6.698;2023-04-03T03:07:48;6.77;;;4.67;;
9898;SDS011;4988;49.238;6.698;2023-04-03T03:10:13;7.03;;;5.00;;
9898;SDS011;4988;49.238;6.698;2023-04-03T03:12:39;8.43;;;5.17;;
9898;SDS011;4988;49.238;6.698;2023-04-03T03:15:05;6.53;;;5.13;;
9898;SDS011;4988;49.238;6.698;2023-04-03T03:17:31;7.97;;;5.47;;
9898;SDS011;4988;49.238;6.698;2023-04-03T03:19:57;6.57;;;5.23;;
9898;SDS011;4988;49.238;6.698;2023-04-03T03:22:22;9.53;;;4.93;;
9898;SDS011;4988;49.238;6.698;2023-04-03T03:24:47;5.67;;;4.77;;
9898;SDS011;4988;49.238;6.698;2023-04-03T03:27:12;6.33;;;4.70;;
9898;SDS011;4988;49.238;6.698;2023-04-03T03:29:38;9.13;;;5.00;;
9898;SDS011;4988;49.238;6.698;2023-04-03T03:32:03;8.73;;;5.00;;
9898;SDS011;4988;49.238;6.698;2023-04-03T03:34:29;6.97;;;4.93;;
9898;SDS011;4988;49.238;6.698;2023-04-03T03:36:54;5.87;;;4.87;;
9898;SDS011;4988;49.238;6.698;2023-04-03T03:39:20;5.77;;;4.90;;
9898;SDS011;4988;49.238;6.698;2023-04-03T03:41:46;6.37;;;4.73;;
9898;SDS011;4988;49.238;6.698;2023-04-03T03:44:11;7.13;;;5.40;;
9898;SDS011;4988;49.238;6.698;2023-04-03T03:46:36;7.87;;;5.10;;
9898;SDS011;4988;49.238;6.698;2023-04-03T03:49:02;7.50;;;5.00;;
9898;SDS011;4988;49.238;6.698;2023-04-03T03:51:27;8.77;;;5.27;;
9898;SDS011;4988;49.238;6.698;2023-04-03T03:53:52;6.27;;;4.90;;
9898;SDS011;4988;49.238;6.698;2023-04-03T03:56:18;6.23;;;4.70;;
9898;SDS011;4988;49.238;6.698;2023-04-03T03:58:43;6.57;;;4.93;;
9898;SDS011;4988;49.238;6.698;2023-04-03T04:01:08;7.00;;;4.70;;
9898;SDS011;4988;49.238;6.698;2023-04-03T04:03:34;6.93;;;5.07;;
9898;SDS011;4988;49.238;6.698;2023-04-03T04:05:59;7.30;;;4.87;;
9898;SDS011;4988;49.238;6.698;2023-04-03T04:08:25;6.73;;;4.83;;
9898;SDS011;4988;49.238;6.698;2023-04-03T04:10:50;7.77;;;4.70;;
9898;SDS011;4988;49.238;6.698;2023-04-03T04:13:16;6.70;;;4.83;;
9898;SDS011;4988;49.238;6.698;2023-04-03T04:15:42;8.43;;;4.83;;
9898;SDS011;4988;49.238;6.698;2023-04-03T04:18:07;7.57;;;5.90;;
9898;SDS011;4988;49.238;6.698;2023-04-03T04:20:33;10.70;;;4.63;;
9898;SDS011;4988;49.238;6.698;2023-04-03T04:22:58;5.63;;;4.80;;
9898;SDS011;4988;49.238;6.698;2023-04-03T04:25:23;7.57;;;4.63;;
9898;SDS011;4988;49.238;6.698;2023-04-03T04:27:49;8.00;;;5.20;;
9898;SDS011;4988;49.238;6.698;2023-04-03T04:30:14;6.43;;;4.70;;
9898;SDS011;4988;49.238;6.698;2023-04-03T04:32:40;7.43;;;4.93;;
9898;SDS011;4988;49.238;6.698;2023-04-03T04:35:05;12.23;;;5.33;;
9898;SDS011;4988;49.238;6.698;2023-04-03T04:37:31;8.00;;;5.67;;
9898;SDS011;4988;49.238;6.698;2023-04-03T04:39:57;8.77;;;5.37;;
9898;SDS011;4988;49.238;6.698;2023-04-03T04:42:22;7.83;;;5.80;;
9898;SDS011;4988;49.238;6.698;2023-04-03T04:44:47;7.87;;;5.90;;
9898;SDS011;4988;49.238;6.698;2023-04-03T04:47:13;9.20;;;5.43;;
9898;SDS011;4988;49.238;6.698;2023-04-03T04:49:38;7.17;;;5.47;;
9898;SDS011;4988;49.238;6.698;2023-04-03T04:52:04;7.73;;;5.23;;
9898;SDS011;4988;49.238;6.698;2023-04-03T04:54:29;11.07;;;5.50;;
9898;SDS011;4988;49.238;6.698;2023-04-03T04:56:55;7.27;;;5.23;;
9898;SDS011;4988;49.238;6.698;2023-04-03T04:59:20;7.57;;;5.03;;
9898;SDS011;4988;49.238;6.698;2023-04-03T05:01:46;9.17;;;5.47;;
9898;SDS011;4988;49.238;6.698;2023-04-03T05:04:11;8.70;;;5.13;;
9898;SDS011;4988;49.238;6.698;2023-04-03T05:06:37;8.37;;;5.47;;
9898;SDS011;4988;49.238;6.698;2023-04-03T05:09:03;6.83;;;5.40;;
9898;SDS011;4988;49.238;6.698;2023-04-03T05:11:28;10.50;;;5.43;;
9898;SDS011;4988;49.238;6.698;2023-04-03T05:13:54;7.03;;;5.30;;
9898;SDS011;4988;49.238;6.698;2023-04-03T05:16:19;6.67;;;5.03;;
9898;SDS011;4988;49.238;6.698;2023-04-03T05:18:44;7.50;;;5.27;;
9898;SDS011;4988;49.238;6.698;2023-04-03T05:21:10;9.23;;;5.93;;
9898;SDS011;4988;49.238;6.698;2023-04-03T05:23:35;9.53;;;5.87;;
9898;SDS011;4988;49.238;6.698;2023-04-03T05:26:01;8.60;;;5.73;;
9898;SDS011;4988;49.238;6.698;2023-04-03T05:28:26;10.50;;;6.53;;
9898;SDS011;4988;49.238;6.698;2023-04-03T05:30:55;9.47;;;6.43;;
9898;SDS011;4988;49.238;6.698;2023-04-03T05:33:22;9.20;;;5.80;;
9898;SDS011;4988;49.238;6.698;2023-04-03T05:35:47;8.30;;;6.17;;
9898;SDS011;4988;49.238;6.698;2023-04-03T05:38:13;9.00;;;5.90;;
9898;SDS011;4988;49.238;6.698;2023-04-03T05:40:38;8.63;;;5.40;;
9898;SDS011;4988;49.238;6.698;2023-04-03T05:43:04;10.17;;;6.60;;
9898;SDS011;4988;49.238;6.698;2023-04-03T05:45:29;13.93;;;6.90;;
9898;SDS011;4988;49.238;6.698;2023-04-03T05:47:55;11.33;;;6.47;;
9898;SDS011;4988;49.238;6.698;2023-04-03T05:50:20;9.40;;;6.43;;
9898;SDS011;4988;49.238;6.698;2023-04-03T05:52:46;10.57;;;6.47;;
9898;SDS011;4988;49.238;6.698;2023-04-03T05:55:13;10.77;;;6.30;;
9898;SDS011;4988;49.238;6.698;2023-04-03T05:57:39;10.30;;;6.60;;
9898;SDS011;4988;49.238;6.698;2023-04-03T06:00:05;11.30;;;6.50;;
9898;SDS011;4988;49.238;6.698;2023-04-03T06:02:32;11.13;;;6.77;;
9898;SDS011;4988;49.238;6.698;2023-04-03T06:04:57;11.83;;;6.83;;
9898;SDS011;4988;49.238;6.698;2023-04-03T06:07:23;18.10;;;8.80;;
9898;SDS011;4988;49.238;6.698;2023-04-03T06:09:52;29.70;;;11.40;;
9898;SDS011;4988;49.238;6.698;2023-04-03T06:12:17;24.67;;;9.07;;
9898;SDS011;4988;49.238;6.698;2023-04-03T06:14:43;14.37;;;6.87;;
9898;SDS011;4988;49.238;6.698;2023-04-03T06:17:08;18.97;;;7.93;;
9898;SDS011;4988;49.238;6.698;2023-04-03T06:19:34;10.27;;;6.03;;
9898;SDS011;4988;49.238;6.698;2023-04-03T06:22:00;10.50;;;5.47;;
9898;SDS011;4988;49.238;6.698;2023-04-03T06:24:26;8.87;;;5.00;;
9898;SDS011;4988;49.238;6.698;2023-04-03T06:26:52;7.97;;;4.53;;
9898;SDS011;4988;49.238;6.698;2023-04-03T06:29:21;5.37;;;4.50;;
9898;SDS011;4988;49.238;6.698;2023-04-03T06:31:46;8.73;;;4.70;;
9898;SDS011;4988;49.238;6.698;2023-04-03T06:34:12;6.30;;;4.20;;
9898;SDS011;4988;49.238;6.698;2023-04-03T06:36:38;6.20;;;4.60;;
9898;SDS011;4988;49.238;6.698;2023-04-03T06:39:04;5.77;;;4.20;;
9898;SDS011;4988;49.238;6.698;2023-04-03T06:41:30;7.37;;;4.30;;
9898;SDS011;4988;49.238;6.698;2023-04-03T06:43:56;5.83;;;4.33;;
9898;SDS011;4988;49.238;6.698;2023-04-03T06:46:23;6.93;;;4.10;;
9898;SDS011;4988;49.238;6.698;2023-04-03T06:48:49;6.40;;;4.07;;
9898;SDS011;4988;49.238;6.698;2023-04-03T06:53:49;4.90;;;3.73;;
9898;SDS011;4988;49.238;6.698;2023-04-03T06:56:16;3.70;;;3.27;;
9898;SDS011;4988;49.238;6.698;2023-04-03T06:58:42;5.30;;;3.53;;
9898;SDS011;4988;49.238;6.698;2023-04-03T07:01:09;7.47;;;3.90;;
9898;SDS011;4988;49.238;6.698;2023-04-03T07:03:36;6.13;;;3.80;;
9898;SDS011;4988;49.238;6.698;2023-04-03T07:06:03;4.30;;;3.50;;
9898;SDS011;4988;49.238;6.698;2023-04-03T07:08:30;4.67;;;3.63;;
9898;SDS011;4988;49.238;6.698;2023-04-03T07:10:56;4.17;;;3.10;;
9898;SDS011;4988;49.238;6.698;2023-04-03T07:13:21;6.03;;;3.33;;
9898;SDS011;4988;49.238;6.698;2023-04-03T07:15:47;6.50;;;3.50;;
9898;SDS011;4988;49.238;6.698;2023-04-03T07:18:13;5.67;;;3.30;;
9898;SDS011;4988;49.238;6.698;2023-04-03T07:20:38;4.10;;;3.20;;
9898;SDS011;4988;49.238;6.698;2023-04-03T07:23:04;4.33;;;3.30;;
9898;SDS011;4988;49.238;6.698;2023-04-03T07:25:29;4.57;;;2.97;;
9898;SDS011;4988;49.238;6.698;2023-04-03T07:27:55;4.80;;;3.37;;
9898;SDS011;4988;49.238;6.698;2023-04-03T07:30:21;4.67;;;3.07;;
9898;SDS011;4988;49.238;6.698;2023-04-03T07:32:47;4.20;;;3.00;;
9898;SDS011;4988;49.238;6.698;2023-04-03T07:35:12;4.47;;;3.07;;
9898;SDS011;4988;49.238;6.698;2023-04-03T07:37:38;3.90;;;3.00;;
9898;SDS011;4988;49.238;6.698;2023-04-03T07:40:03;3.77;;;2.83;;
9898;SDS011;4988;49.238;6.698;2023-04-03T07:42:29;4.20;;;2.80;;
9898;SDS011;4988;49.238;6.698;2023-04-03T07:44:55;5.13;;;2.90;;
9898;SDS011;4988;49.238;6.698;2023-04-03T07:47:21;4.07;;;2.87;;
9898;SDS011;4988;49.238;6.698;2023-04-03T07:49:47;3.13;;;2.83;;
9898;SDS011;4988;49.238;6.698;2023-04-03T07:52:13;3.40;;;3.10;;
9898;SDS011;4988;49.238;6.698;2023-04-03T07:54:40;3.17;;;2.87;;
9898;SDS011;4988;49.238;6.698;2023-04-03T07:57:06;4.43;;;2.87;;
9898;SDS011;4988;49.238;6.698;2023-04-03T07:59:31;2.90;;;2.60;;
9898;SDS011;4988;49.238;6.698;2023-04-03T08:01:57;4.50;;;2.67;;
9898;SDS011;4988;49.238;6.698;2023-04-03T08:04:22;3.10;;;2.60;;
9898;SDS011;4988;49.238;6.698;2023-04-03T08:06:48;4.23;;;2.60;;
9898;SDS011;4988;49.238;6.698;2023-04-03T08:09:14;3.47;;;2.70;;
9898;SDS011;4988;49.238;6.698;2023-04-03T08:11:40;5.13;;;2.80;;
9898;SDS011;4988;49.238;6.698;2023-04-03T08:14:06;3.27;;;2.97;;
9898;SDS011;4988;49.238;6.698;2023-04-03T08:16:32;4.53;;;2.90;;
9898;SDS011;4988;49.238;6.698;2023-04-03T08:18:57;3.67;;;2.87;;
9898;SDS011;4988;49.238;6.698;2023-04-03T08:21:24;4.17;;;3.00;;
9898;SDS011;4988;49.238;6.698;2023-04-03T08:23:50;6.07;;;3.27;;
9898;SDS011;4988;49.238;6.698;2023-04-03T08:26:18;4.73;;;3.07;;
9898;SDS011;4988;49.238;6.698;2023-04-03T08:28:46;4.47;;;3.13;;
9898;SDS011;4988;49.238;6.698;2023-04-03T08:31:13;5.57;;;3.13;;
9898;SDS011;4988;49.238;6.698;2023-04-03T08:33:40;6.10;;;3.03;;
9898;SDS011;4988;49.238;6.698;2023-04-03T08:36:06;14.77;;;6.30;;
9898;SDS011;4988;49.238;6.698;2023-04-03T08:38:40;10.17;;;3.57;;
9898;SDS011;4988;49.238;6.698;2023-04-03T08:49:31;3.53;;;2.77;;
9898;SDS011;4988;49.238;6.698;2023-04-03T08:52:01;7.53;;;3.17;;
9898;SDS011;4988;49.238;6.698;2023-04-03T08:54:33;6.67;;;3.10;;
9898;SDS011;4988;49.238;6.698;2023-04-03T08:57:01;5.87;;;3.10;;
9898;SDS011;4988;49.238;6.698;2023-04-03T08:59:29;3.60;;;2.83;;
9898;SDS011;4988;49.238;6.698;2023-04-03T09:01:58;6.07;;;2.97;;
9898;SDS011;4988;49.238;6.698;2023-04-03T09:04:29;4.00;;;2.80;;
9898;SDS011;4988;49.238;6.698;2023-04-03T09:06:58;4.17;;;2.93;;
9898;SDS011;4988;49.238;6.698;2023-04-03T09:09:35;4.13;;;2.90;;
9898;SDS011;4988;49.238;6.698;2023-04-03T09:17:26;5.37;;;3.00;;
9898;SDS011;4988;49.238;6.698;2023-04-03T09:20:11;3.13;;;2.60;;
9898;SDS011;4988;49.238;6.698;2023-04-03T09:23:26;4.93;;;2.53;;
9898;SDS011;4988;49.238;6.698;2023-04-03T09:26:09;3.40;;;2.60;;
9898;SDS011;4988;49.238;6.698;2023-04-03T09:28:39;4.60;;;2.30;;
9898;SDS011;4988;49.238;6.698;2023-04-03T09:31:18;2.33;;;2.10;;
9898;SDS011;4988;49.238;6.698;2023-04-03T09:33:50;5.27;;;2.40;;
9898;SDS011;4988;49.238;6.698;2023-04-03T09:36:37;4.43;;;2.53;;
9898;SDS011;4988;49.238;6.698;2023-04-03T09:39:31;3.03;;;2.57;;
9898;SDS011;4988;49.238;6.698;2023-04-03T09:42:03;3.80;;;2.77;;
9898;SDS011;4988;49.238;6.698;2023-04-03T09:44:34;4.53;;;2.70;;
9898;SDS011;4988;49.238;6.698;2023-04-03T09:49:50;5.50;;;2.50;;
9898;SDS011;4988;49.238;6.698;2023-04-03T09:52:26;3.77;;;2.60;;
9898;SDS011;4988;49.238;6.698;2023-04-03T09:54:51;7.87;;;2.50;;
9898;SDS011;4988;49.238;6.698;2023-04-03T09:57:17;4.17;;;2.80;;
9898;SDS011;4988;49.238;6.698;2023-04-03T10:00:05;3.93;;;2.77;;
9898;SDS011;4988;49.238;6.698;2023-04-03T10:02:32;4.73;;;3.13;;
9898;SDS011;4988;49.238;6.698;2023-04-03T10:05:00;4.43;;;2.97;;
9898;SDS011;4988;49.238;6.698;2023-04-03T10:10:01;5.33;;;2.73;;
9898;SDS011;4988;49.238;6.698;2023-04-03T10:13:03;4.77;;;2.60;;
9898;SDS011;4988;49.238;6.698;2023-04-03T10:15:30;5.73;;;3.00;;
9898;SDS011;4988;49.238;6.698;2023-04-03T10:18:19;5.53;;;3.13;;
9898;SDS011;4988;49.238;6.698;2023-04-03T10:20:51;4.10;;;3.10;;
9898;SDS011;4988;49.238;6.698;2023-04-03T10:23:24;4.37;;;2.80;;
9898;SDS011;4988;49.238;6.698;2023-04-03T10:26:00;5.90;;;3.27;;
9898;SDS011;4988;49.238;6.698;2023-04-03T10:37:46;5.23;;;3.20;;
9898;SDS011;4988;49.238;6.698;2023-04-03T10:39:57;4.37;;;3.10;;
9898;SDS011;4988;49.238;6.698;2023-04-03T10:42:35;4.67;;;3.03;;
9898;SDS011;4988;49.238;6.698;2023-04-03T10:48:16;4.63;;;3.00;;
9898;SDS011;4988;49.238;6.698;2023-04-03T10:54:11;5.43;;;3.30;;
9898;SDS011;4988;49.238;6.698;2023-04-03T10:56:47;6.60;;;3.20;;
9898;SDS011;4988;49.238;6.698;2023-04-03T10:59:21;5.43;;;3.23;;
9898;SDS011;4988;49.238;6.698;2023-04-03T11:01:54;6.93;;;3.17;;
9898;SDS011;4988;49.238;6.698;2023-04-03T11:04:23;4.67;;;3.07;;
9898;SDS011;4988;49.238;6.698;2023-04-03T11:06:57;7.70;;;3.30;;
9898;SDS011;4988;49.238;6.698;2023-04-03T11:14:53;6.13;;;3.47;;
9898;SDS011;4988;49.238;6.698;2023-04-03T11:22:42;6.07;;;3.57;;
9898;SDS011;4988;49.238;6.698;2023-04-03T11:25:29;4.87;;;3.20;;
9898;SDS011;4988;49.238;6.698;2023-04-03T11:27:58;7.27;;;3.90;;
9898;SDS011;4988;49.238;6.698;2023-04-03T11:36:02;6.90;;;3.50;;
9898;SDS011;4988;49.238;6.698;2023-04-03T11:38:38;5.30;;;3.03;;
9898;SDS011;4988;49.238;6.698;2023-04-03T11:41:08;6.23;;;3.33;;
9898;SDS011;4988;49.238;6.698;2023-04-03T11:43:39;5.10;;;3.27;;
9898;SDS011;4988;49.238;6.698;2023-04-03T11:46:07;5.73;;;3.37;;
9898;SDS011;4988;49.238;6.698;2023-04-03T11:50:59;4.10;;;3.40;;
9898;SDS011;4988;49.238;6.698;2023-04-03T11:53:46;4.03;;;3.20;;
9898;SDS011;4988;49.238;6.698;2023-04-03T12:01:45;6.13;;;3.13;;
9898;SDS011;4988;49.238;6.698;2023-04-03T12:04:19;6.10;;;3.60;;
9898;SDS011;4988;49.238;6.698;2023-04-03T12:11:59;4.83;;;3.43;;
9898;SDS011;4988;49.238;6.698;2023-04-03T12:14:27;6.80;;;3.13;;
9898;SDS011;4988;49.238;6.698;2023-04-03T12:16:54;4.13;;;2.90;;
9898;SDS011;4988;49.238;6.698;2023-04-03T12:22:10;4.90;;;3.50;;
9898;SDS011;4988;49.238;6.698;2023-04-03T12:24:39;4.97;;;2.83;;
9898;SDS011;4988;49.238;6.698;2023-04-03T12:29:55;6.30;;;3.63;;
9898;SDS011;4988;49.238;6.698;2023-04-03T12:43:43;8.27;;;5.20;;
9898;SDS011;4988;49.238;6.698;2023-04-03T12:46:16;5.53;;;4.10;;
9898;SDS011;4988;49.238;6.698;2023-04-03T12:51:09;5.77;;;3.50;;
9898;SDS011;4988;49.238;6.698;2023-04-03T12:53:39;5.07;;;3.20;;
9898;SDS011;4988;49.238;6.698;2023-04-03T12:56:19;6.80;;;3.60;;
9898;SDS011;4988;49.238;6.698;2023-04-03T12:58:50;10.43;;;4.30;;
9898;SDS011;4988;49.238;6.698;2023-04-03T13:01:17;6.37;;;3.67;;
9898;SDS011;4988;49.238;6.698;2023-04-03T13:03:56;8.77;;;4.20;;
9898;SDS011;4988;49.238;6.698;2023-04-03T13:06:41;7.43;;;3.93;;
9898;SDS011;4988;49.238;6.698;2023-04-03T13:14:53;13.20;;;5.40;;
9898;SDS011;4988;49.238;6.698;2023-04-03T13:17:20;10.23;;;4.27;;
9898;SDS011;4988;49.238;6.698;2023-04-03T13:19:46;14.00;;;4.73;;
9898;SDS011;4988;49.238;6.698;2023-04-03T13:24:58;7.47;;;3.30;;
9898;SDS011;4988;49.238;6.698;2023-04-03T13:27:27;7.97;;;4.30;;
9898;SDS011;4988;49.238;6.698;2023-04-03T13:29:57;5.43;;;3.27;;
9898;SDS011;4988;49.238;6.698;2023-04-03T13:32:25;5.63;;;3.37;;
9898;SDS011;4988;49.238;6.698;2023-04-03T13:34:52;6.27;;;3.00;;
9898;SDS011;4988;49.238;6.698;2023-04-03T13:42:33;7.27;;;2.73;;
9898;SDS011;4988;49.238;6.698;2023-04-03T13:47:53;5.70;;;2.90;;
9898;SDS011;4988;49.238;6.698;2023-04-03T13:50:32;6.23;;;2.90;;
9898;SDS011;4988;49.238;6.698;2023-04-03T13:53:02;4.40;;;2.67;;
9898;SDS011;4988;49.238;6.698;2023-04-03T13:55:52;4.13;;;2.57;;
9898;SDS011;4988;49.238;6.698;2023-04-03T13:58:32;5.80;;;2.50;;
9898;SDS011;4988;49.238;6.698;2023-04-03T14:01:14;3.80;;;3.10;;
9898;SDS011;4988;49.238;6.698;2023-04-03T14:06:24;5.13;;;2.60;;
9898;SDS011;4988;49.238;6.698;2023-04-03T14:08:50;4.60;;;3.03;;
9898;SDS011;4988;49.238;6.698;2023-04-03T14:11:24;5.80;;;3.00;;
9898;SDS011;4988;49.238;6.698;2023-04-03T14:13:54;4.80;;;2.43;;
9898;SDS011;4988;49.238;6.698;2023-04-03T14:16:23;3.33;;;2.77;;
9898;SDS011;4988;49.238;6.698;2023-04-03T14:18:54;4.77;;;2.97;;
9898;SDS011;4988;49.238;6.698;2023-04-03T14:21:20;4.80;;;2.60;;
9898;SDS011;4988;49.238;6.698;2023-04-03T14:23:46;6.37;;;2.70;;
9898;SDS011;4988;49.238;6.698;2023-04-03T14:26:13;5.60;;;3.00;;
9898;SDS011;4988;49.238;6.698;2023-04-03T14:28:41;6.30;;;3.17;;
9898;SDS011;4988;49.238;6.698;2023-04-03T14:31:07;8.53;;;2.60;;
9898;SDS011;4988;49.238;6.698;2023-04-03T14:33:35;5.10;;;3.03;;
9898;SDS011;4988;49.238;6.698;2023-04-03T14:36:04;4.90;;;3.03;;
9898;SDS011;4988;49.238;6.698;2023-04-03T14:38:36;4.63;;;3.30;;
9898;SDS011;4988;49.238;6.698;2023-04-03T14:41:02;6.40;;;3.13;;
9898;SDS011;4988;49.238;6.698;2023-04-03T14:43:27;7.27;;;4.03;;
9898;SDS011;4988;49.238;6.698;2023-04-03T14:45:53;5.83;;;3.57;;
9898;SDS011;4988;49.238;6.698;2023-04-03T14:48:20;8.37;;;3.70;;
9898;SDS011;4988;49.238;6.698;2023-04-03T14:50:50;4.70;;;3.47;;
9898;SDS011;4988;49.238;6.698;2023-04-03T14:53:16;8.00;;;4.23;;
9898;SDS011;4988;49.238;6.698;2023-04-03T14:55:46;6.10;;;3.13;;
9898;SDS011;4988;49.238;6.698;2023-04-03T14:58:16;4.50;;;3.10;;
9898;SDS011;4988;49.238;6.698;2023-04-03T15:00:44;4.57;;;3.20;;
9898;SDS011;4988;49.238;6.698;2023-04-03T15:03:17;4.60;;;3.10;;
9898;SDS011;4988;49.238;6.698;2023-04-03T15:05:45;6.27;;;3.23;;
9898;SDS011;4988;49.238;6.698;2023-04-03T15:08:22;9.07;;;3.53;;
9898;SDS011;4988;49.238;6.698;2023-04-03T15:10:50;6.80;;;3.30;;
9898;SDS011;4988;49.238;6.698;2023-04-03T15:13:18;4.10;;;3.30;;
9898;SDS011;4988;49.238;6.698;2023-04-03T15:15:44;10.70;;;3.67;;
9898;SDS011;4988;49.238;6.698;2023-04-03T15:18:14;3.73;;;3.27;;
9898;SDS011;4988;49.238;6.698;2023-04-03T15:20:51;11.23;;;3.30;;
9898;SDS011;4988;49.238;6.698;2023-04-03T15:23:17;4.37;;;3.40;;
9898;SDS011;4988;49.238;6.698;2023-04-03T15:25:43;5.90;;;3.10;;
9898;SDS011;4988;49.238;6.698;2023-04-03T15:28:14;5.83;;;3.10;;
9898;SDS011;4988;49.238;6.698;2023-04-03T15:30:48;8.00;;;3.00;;
9898;SDS011;4988;49.238;6.698;2023-04-03T15:33:13;5.87;;;3.37;;
9898;SDS011;4988;49.238;6.698;2023-04-03T15:35:40;6.07;;;3.17;;
9898;SDS011;4988;49.238;6.698;2023-04-03T15:38:06;4.90;;;3.47;;
9898;SDS011;4988;49.238;6.698;2023-04-03T15:40:31;6.97;;;3.20;;
9898;SDS011;4988;49.238;6.698;2023-04-03T15:42:56;6.97;;;3.50;;
9898;SDS011;4988;49.238;6.698;2023-04-03T15:45:22;3.83;;;2.80;;
9898;SDS011;4988;49.238;6.698;2023-04-03T15:47:47;6.83;;;3.10;;
9898;SDS011;4988;49.238;6.698;2023-04-03T15:50:13;6.40;;;3.37;;
9898;SDS011;4988;49.238;6.698;2023-04-03T15:52:38;5.23;;;2.90;;
9898;SDS011;4988;49.238;6.698;2023-04-03T15:55:04;3.13;;;2.43;;
9898;SDS011;4988;49.238;6.698;2023-04-03T15:57:30;5.13;;;3.23;;
9898;SDS011;4988;49.238;6.698;2023-04-03T15:59:55;11.00;;;3.27;;
9898;SDS011;4988;49.238;6.698;2023-04-03T16:02:21;7.03;;;3.50;;
9898;SDS011;4988;49.238;6.698;2023-04-03T16:04:47;7.03;;;3.60;;
9898;SDS011;4988;49.238;6.698;2023-04-03T16:07:12;4.90;;;3.07;;
9898;SDS011;4988;49.238;6.698;2023-04-03T16:09:38;4.77;;;3.30;;
9898;SDS011;4988;49.238;6.698;2023-04-03T16:12:03;7.77;;;3.40;;
9898;SDS011;4988;49.238;6.698;2023-04-03T16:14:29;7.10;;;3.20;;
9898;SDS011;4988;49.238;6.698;2023-04-03T16:16:55;5.53;;;3.20;;
9898;SDS011;4988;49.238;6.698;2023-04-03T16:19:22;4.53;;;3.40;;
9898;SDS011;4988;49.238;6.698;2023-04-03T16:21:48;8.23;;;4.23;;
9898;SDS011;4988;49.238;6.698;2023-04-03T16:24:13;5.23;;;3.50;;
9898;SDS011;4988;49.238;6.698;2023-04-03T16:26:39;3.73;;;3.33;;
9898;SDS011;4988;49.238;6.698;2023-04-03T16:29:04;5.10;;;3.23;;
9898;SDS011;4988;49.238;6.698;2023-04-03T16:31:30;6.73;;;3.70;;
9898;SDS011;4988;49.238;6.698;2023-04-03T16:33:57;5.80;;;4.30;;
9898;SDS011;4988;49.238;6.698;2023-04-03T16:36:23;6.10;;;4.00;;
9898;SDS011;4988;49.238;6.698;2023-04-03T16:38:49;5.40;;;4.23;;
9898;SDS011;4988;49.238;6.698;2023-04-03T16:41:14;8.73;;;4.10;;
9898;SDS011;4988;49.238;6.698;2023-04-03T16:43:40;7.87;;;3.80;;
9898;SDS011;4988;49.238;6.698;2023-04-03T16:46:05;5.33;;;3.73;;
9898;SDS011;4988;49.238;6.698;2023-04-03T16:48:30;5.13;;;3.33;;
9898;SDS011;4988;49.238;6.698;2023-04-03T16:50:56;7.53;;;3.40;;
9898;SDS011;4988;49.238;6.698;2023-04-03T16:53:22;6.30;;;3.80;;
9898;SDS011;4988;49.238;6.698;2023-04-03T16:55:48;5.43;;;3.80;;
9898;SDS011;4988;49.238;6.698;2023-04-03T16:58:13;5.83;;;3.43;;
9898;SDS011;4988;49.238;6.698;2023-04-03T17:00:40;5.43;;;3.50;;
9898;SDS011;4988;49.238;6.698;2023-04-03T17:03:06;3.93;;;3.37;;
9898;SDS011;4988;49.238;6.698;2023-04-03T17:05:31;6.77;;;4.60;;
9898;SDS011;4988;49.238;6.698;2023-04-03T17:07:56;5.33;;;4.33;;
9898;SDS011;4988;49.238;6.698;2023-04-03T17:10:22;4.33;;;3.77;;
9898;SDS011;4988;49.238;6.698;2023-04-03T17:12:48;7.80;;;4.43;;